createdAt,value
2022-08-08T00:00:52.140Z,15.10
2022-08-08T00:03:20.111Z,15.10
2022-08-08T00:06:03.769Z,15.10
2022-08-08T00:08:48.958Z,14.80
2022-08-08T00:12:03.308Z,14.60
2022-08-08T00:14:48.620Z,14.20
2022-08-08T00:17:58.511Z,14.00
2022-08-08T00:20:36.174Z,13.90
2022-08-08T00:23:11.495Z,13.80
2022-08-08T00:25:51.401Z,13.60
2022-08-08T00:28:34.995Z,13.50
2022-08-08T00:32:20.873Z,13.40
2022-08-08T00:34:46.794Z,13.30
2022-08-08T00:37:47.898Z,13.20
2022-08-08T00:41:10.840Z,13.10
2022-08-08T00:44:11.867Z,13.00
2022-08-08T00:47:36.811Z,12.90
2022-08-08T00:51:22.808Z,12.90
2022-08-08T00:55:00.558Z,12.80
2022-08-08T00:58:30.823Z,12.70
2022-08-08T01:01:19.609Z,12.60
2022-08-08T01:04:47.426Z,12.50
2022-08-08T01:08:07.794Z,12.40
2022-08-08T01:11:23.969Z,12.40
2022-08-08T01:14:54.809Z,12.30
2022-08-08T01:18:16.180Z,12.20
2022-08-08T01:22:12.791Z,12.10
2022-08-08T01:25:16.631Z,12.20
2022-08-08T01:28:18.611Z,12.20
2022-08-08T01:32:13.534Z,12.20
2022-08-08T01:35:11.342Z,12.20
2022-08-08T01:38:26.291Z,12.20
2022-08-08T01:41:09.960Z,12.40
2022-08-08T01:43:53.306Z,12.50
2022-08-08T01:46:52.435Z,12.50
2022-08-08T01:49:37.726Z,12.40
2022-08-08T01:53:02.760Z,12.30
2022-08-08T01:56:27.683Z,12.30
2022-08-08T01:58:39.608Z,12.40
2022-08-08T02:01:27.904Z,12.50
2022-08-08T02:04:11.633Z,12.50
2022-08-08T02:07:04.760Z,12.40
2022-08-08T02:10:12.154Z,12.30
2022-08-08T02:12:54.541Z,12.20
2022-08-08T02:15:38.562Z,12.10
2022-08-08T02:18:16.867Z,12.10
2022-08-08T02:21:13.262Z,12.20
2022-08-08T02:23:54.696Z,12.10
2022-08-08T02:26:35.633Z,12.00
2022-08-08T02:29:27.023Z,11.90
2022-08-08T02:32:41.189Z,11.90
2022-08-08T02:36:04.961Z,12.00
2022-08-08T02:38:50.969Z,12.20
2022-08-08T02:42:36.025Z,12.20
2022-08-08T02:45:54.135Z,12.10
2022-08-08T02:49:27.522Z,12.10
2022-08-08T02:52:51.718Z,12.10
2022-08-08T02:56:03.643Z,12.10
2022-08-08T03:00:01.590Z,12.20
2022-08-08T03:03:46.643Z,11.90
2022-08-08T03:07:07.327Z,11.80
2022-08-08T03:10:44.088Z,11.80
2022-08-08T03:15:59.071Z,11.80
2022-08-08T03:16:54.182Z,11.70
2022-08-08T03:20:04.619Z,11.60
2022-08-08T03:22:47.304Z,11.50
2022-08-08T03:25:19.228Z,11.50
2022-08-08T03:27:58.811Z,11.60
2022-08-08T03:30:28.541Z,11.50
2022-08-08T03:33:55.512Z,11.50
2022-08-08T03:36:03.704Z,11.30
2022-08-08T03:38:55.716Z,11.30
2022-08-08T03:42:13.223Z,11.20
2022-08-08T03:44:10.132Z,11.10
2022-08-08T03:46:48.488Z,11.10
2022-08-08T03:49:58.928Z,11.10
2022-08-08T03:52:13.209Z,11.30
2022-08-08T03:55:01.891Z,11.30
2022-08-08T03:58:31.446Z,11.10
2022-08-08T04:00:27.482Z,11.10
2022-08-08T04:03:01.836Z,11.00
2022-08-08T04:05:35.086Z,11.10
2022-08-08T04:08:07.291Z,10.90
2022-08-08T04:10:38.359Z,10.90
2022-08-08T04:13:17.522Z,10.90
2022-08-08T04:15:55.000Z,10.80
2022-08-08T04:18:32.387Z,10.80
2022-08-08T04:21:00.908Z,10.80
2022-08-08T04:23:33.134Z,10.90
2022-08-08T04:26:18.451Z,11.20
2022-08-08T04:28:47.713Z,11.60
2022-08-08T04:31:57.190Z,11.80
2022-08-08T04:34:10.796Z,11.90
2022-08-08T04:36:38.851Z,12.00
2022-08-08T04:40:03.667Z,12.20
2022-08-08T04:41:56.886Z,12.20
2022-08-08T04:44:26.775Z,12.30
2022-08-08T04:46:55.762Z,12.20
2022-08-08T04:49:28.763Z,12.20
2022-08-08T04:51:57.812Z,12.20
2022-08-08T04:54:38.708Z,12.20
2022-08-08T04:57:11.941Z,12.20
2022-08-08T04:59:41.873Z,12.40
2022-08-08T05:02:13.610Z,12.50
2022-08-08T05:04:44.526Z,12.70
2022-08-08T05:07:14.861Z,12.90
2022-08-08T05:09:43.659Z,13.00
2022-08-08T05:12:31.056Z,13.10
2022-08-08T05:15:01.165Z,13.20
2022-08-08T05:17:53.425Z,13.40
2022-08-08T05:20:20.679Z,13.50
2022-08-08T05:22:50.278Z,13.70
2022-08-08T05:25:21.437Z,14.00
2022-08-08T05:27:51.371Z,15.20
2022-08-08T05:30:28.106Z,16.60
2022-08-08T05:32:56.819Z,17.70
2022-08-08T05:35:27.679Z,18.60
2022-08-08T05:38:02.209Z,19.00
2022-08-08T05:40:31.239Z,19.50
2022-08-08T05:43:17.069Z,20.00
2022-08-08T05:46:03.328Z,20.30
2022-08-08T05:48:36.133Z,20.60
2022-08-08T05:51:14.596Z,20.80
2022-08-08T05:54:26.205Z,21.10
2022-08-08T05:56:42.277Z,21.60
2022-08-08T06:00:01.221Z,21.50
2022-08-08T06:02:38.599Z,21.50
2022-08-08T06:05:35.512Z,21.80
2022-08-08T06:08:02.930Z,22.20
2022-08-08T06:10:40.719Z,22.70
2022-08-08T06:13:12.463Z,23.10
2022-08-08T06:15:51.180Z,23.10
2022-08-08T06:18:25.373Z,23.30
2022-08-08T06:20:57.309Z,23.90
2022-08-08T06:23:48.711Z,24.20
2022-08-08T06:26:44.839Z,24.50
2022-08-08T06:29:26.646Z,24.60
2022-08-08T06:32:10.253Z,25.00
2022-08-08T06:35:12.157Z,25.70
2022-08-08T06:37:51.059Z,25.60
2022-08-08T06:40:27.475Z,26.10
2022-08-08T06:42:57.556Z,26.60
2022-08-08T06:45:28.235Z,26.80
2022-08-08T06:48:01.559Z,26.60
2022-08-08T06:50:33.778Z,27.00
2022-08-08T06:53:09.697Z,26.70
2022-08-08T06:55:43.486Z,27.20
2022-08-08T06:58:15.819Z,27.00
2022-08-08T07:00:51.526Z,26.70
2022-08-08T07:03:51.896Z,27.10
2022-08-08T07:06:26.919Z,27.20
2022-08-08T07:09:02.448Z,27.10
2022-08-08T07:11:51.203Z,26.90
2022-08-08T07:14:27.337Z,27.20
2022-08-08T07:17:09.549Z,27.00
2022-08-08T07:19:53.296Z,26.90
2022-08-08T07:22:42.064Z,26.70
2022-08-08T07:25:17.070Z,26.90
2022-08-08T07:28:02.735Z,27.00
2022-08-08T07:30:36.622Z,26.70
2022-08-08T07:33:05.450Z,27.00
2022-08-08T07:35:40.583Z,27.00
2022-08-08T07:38:21.064Z,27.10
2022-08-08T07:40:58.881Z,27.30
2022-08-08T07:43:35.106Z,27.20
2022-08-08T07:46:23.198Z,27.10
2022-08-08T07:48:52.427Z,26.80
2022-08-08T07:51:23.909Z,27.00
2022-08-08T07:54:32.199Z,27.20
2022-08-08T07:57:16.804Z,27.80
2022-08-08T07:59:59.888Z,28.00
2022-08-08T08:02:39.508Z,29.10
2022-08-08T08:05:21.243Z,29.80
2022-08-08T08:07:56.298Z,29.60
2022-08-08T08:10:33.226Z,29.20
2022-08-08T08:13:25.482Z,28.80
2022-08-08T08:16:17.152Z,28.70
2022-08-08T08:18:56.259Z,28.80
2022-08-08T08:21:44.282Z,28.50
2022-08-08T08:24:20.901Z,28.80
2022-08-08T08:26:59.011Z,29.00
2022-08-08T08:29:28.657Z,29.00
2022-08-08T08:31:59.153Z,29.40
2022-08-08T08:34:33.777Z,29.80
2022-08-08T08:37:07.474Z,29.70
2022-08-08T08:40:00.173Z,29.40
2022-08-08T08:42:31.486Z,29.30
2022-08-08T08:45:10.251Z,29.50
2022-08-08T08:47:53.279Z,29.90
2022-08-08T08:50:33.821Z,29.90
2022-08-08T08:53:27.230Z,29.60
2022-08-08T08:56:01.174Z,29.50
2022-08-08T08:58:35.555Z,29.80
2022-08-08T09:01:10.473Z,30.30
2022-08-08T09:03:46.937Z,30.50
2022-08-08T09:06:28.350Z,30.50
2022-08-08T09:09:07.304Z,31.00
2022-08-08T09:12:02.310Z,30.50
2022-08-08T09:14:35.329Z,30.50
2022-08-08T09:17:11.747Z,30.70
2022-08-08T09:22:01.799Z,31.20
2022-08-08T09:22:31.379Z,31.20
2022-08-08T09:24:59.454Z,30.80
2022-08-08T09:27:55.677Z,30.80
2022-08-08T09:30:20.187Z,30.60
2022-08-08T09:33:12.805Z,30.50
2022-08-08T09:35:48.962Z,31.20
2022-08-08T09:38:35.507Z,31.60
2022-08-08T09:41:54.942Z,31.20
2022-08-08T09:44:36.993Z,31.10
2022-08-08T09:48:04.742Z,31.20
2022-08-08T09:50:03.459Z,31.90
2022-08-08T09:52:56.402Z,32.30
2022-08-08T09:55:51.542Z,32.30
2022-08-08T09:58:25.974Z,31.70
2022-08-08T10:01:15.497Z,31.40
2022-08-08T10:03:56.013Z,31.50
2022-08-08T10:06:29.229Z,30.90
2022-08-08T10:08:57.805Z,31.10
2022-08-08T10:12:25.992Z,31.30
2022-08-08T10:14:28.343Z,31.30
2022-08-08T10:18:03.533Z,32.10
2022-08-08T10:20:00.462Z,31.90
2022-08-08T10:22:32.246Z,31.80
2022-08-08T10:25:07.226Z,31.80
2022-08-08T10:27:46.176Z,32.20
2022-08-08T10:31:00.532Z,32.40
2022-08-08T10:33:12.344Z,31.80
2022-08-08T10:36:20.291Z,31.90
2022-08-08T10:38:32.045Z,31.60
2022-08-08T10:41:06.204Z,32.00
2022-08-08T10:43:43.175Z,32.00
2022-08-08T10:46:27.635Z,31.90
2022-08-08T10:49:00.499Z,31.80
2022-08-08T10:51:41.198Z,31.70
2022-08-08T10:54:25.224Z,32.00
2022-08-08T10:56:59.792Z,32.60
2022-08-08T10:59:30.869Z,33.10
2022-08-08T11:02:00.974Z,33.20
2022-08-08T11:04:39.443Z,33.00
2022-08-08T11:07:14.985Z,32.50
2022-08-08T11:09:57.082Z,32.60
2022-08-08T11:12:25.280Z,32.90
2022-08-08T11:15:00.030Z,33.10
2022-08-08T11:18:00.886Z,33.00
2022-08-08T11:20:27.243Z,33.30
2022-08-08T11:22:59.523Z,33.40
2022-08-08T11:25:53.122Z,33.40
2022-08-08T11:28:29.063Z,33.60
2022-08-08T11:31:03.718Z,34.10
2022-08-08T11:33:52.559Z,34.20
2022-08-08T11:36:27.899Z,33.30
2022-08-08T11:38:58.328Z,33.00
2022-08-08T11:41:33.582Z,33.60
2022-08-08T11:44:05.269Z,34.80
2022-08-08T11:46:35.190Z,34.70
2022-08-08T11:49:14.288Z,34.90
2022-08-08T11:51:50.231Z,34.50
2022-08-08T11:54:33.458Z,34.50
2022-08-08T11:57:27.212Z,34.30
2022-08-08T12:00:05.257Z,35.20
2022-08-08T12:02:50.926Z,34.80
2022-08-08T12:05:22.782Z,34.70
2022-08-08T12:07:56.834Z,34.10
2022-08-08T12:10:27.623Z,34.40
2022-08-08T12:13:04.112Z,33.50
2022-08-08T12:15:42.498Z,34.10
2022-08-08T12:18:21.695Z,34.00
2022-08-08T12:20:56.449Z,34.10
2022-08-08T12:23:43.002Z,34.40
2022-08-08T12:26:28.201Z,34.70
2022-08-08T12:29:21.169Z,34.40
2022-08-08T12:32:02.926Z,34.60
2022-08-08T12:34:44.141Z,35.00
2022-08-08T12:37:21.015Z,35.30
2022-08-08T12:40:00.782Z,34.80
2022-08-08T12:42:32.898Z,34.40
2022-08-08T12:45:53.923Z,34.40
2022-08-08T12:48:10.149Z,34.60
2022-08-08T12:50:57.608Z,34.90
2022-08-08T12:53:36.471Z,34.80
2022-08-08T12:56:18.700Z,34.70
2022-08-08T12:58:55.215Z,35.40
2022-08-08T13:01:37.488Z,35.70
2022-08-08T13:04:18.605Z,35.70
2022-08-08T13:06:56.791Z,34.90
2022-08-08T13:10:00.809Z,34.30
2022-08-08T13:12:33.590Z,34.10
2022-08-08T13:15:06.294Z,34.60
2022-08-08T13:18:07.900Z,34.40
2022-08-08T13:20:28.915Z,34.20
2022-08-08T13:25:50.367Z,34.20
2022-08-08T13:28:32.917Z,34.80
2022-08-08T13:31:04.153Z,34.30
2022-08-08T13:33:41.928Z,33.80
2022-08-08T13:36:11.973Z,33.20
2022-08-08T13:38:41.524Z,33.70
2022-08-08T13:41:16.506Z,34.80
2022-08-08T13:43:50.005Z,34.90
2022-08-08T13:46:26.889Z,35.00
2022-08-08T13:50:32.173Z,34.80
2022-08-08T13:51:58.677Z,34.30
2022-08-08T13:54:31.772Z,33.70
2022-08-08T13:57:13.063Z,33.80
2022-08-08T13:59:48.448Z,34.10
2022-08-08T14:02:21.218Z,34.10
2022-08-08T14:05:05.122Z,34.10
2022-08-08T14:07:51.815Z,34.20
2022-08-08T14:10:32.995Z,34.20
2022-08-08T14:13:31.277Z,34.00
2022-08-08T14:16:15.997Z,33.70
2022-08-08T14:18:54.028Z,33.80
2022-08-08T14:21:39.631Z,33.60
2022-08-08T14:24:09.975Z,33.40
2022-08-08T14:26:45.858Z,33.40
2022-08-08T14:29:27.158Z,33.40
2022-08-08T14:32:09.007Z,33.30
2022-08-08T14:34:39.158Z,33.20
2022-08-08T14:37:13.225Z,32.80
2022-08-08T14:39:49.750Z,33.50
2022-08-08T14:42:31.497Z,33.90
2022-08-08T14:45:05.687Z,33.90
2022-08-08T14:47:57.130Z,33.70
2022-08-08T14:50:37.905Z,33.70
2022-08-08T14:53:13.660Z,33.10
2022-08-08T14:55:43.787Z,32.50
2022-08-08T14:58:19.918Z,32.60
2022-08-08T15:00:49.881Z,32.40
2022-08-08T15:03:19.854Z,32.70
2022-08-08T15:05:53.294Z,32.70
2022-08-08T15:08:34.675Z,32.80
2022-08-08T15:11:09.465Z,32.70
2022-08-08T15:14:02.829Z,32.90
2022-08-08T15:16:34.078Z,32.90
2022-08-08T15:19:05.339Z,32.60
2022-08-08T15:21:37.748Z,32.50
2022-08-08T15:24:12.732Z,32.40
2022-08-08T15:26:46.755Z,32.20
2022-08-08T15:29:22.715Z,31.80
2022-08-08T15:32:17.243Z,31.70
2022-08-08T15:34:42.745Z,31.70
2022-08-08T15:37:13.011Z,31.40
2022-08-08T15:39:41.603Z,31.30
2022-08-08T15:42:17.823Z,31.50
2022-08-08T15:44:58.959Z,31.70
2022-08-08T15:47:27.336Z,31.60
2022-08-08T15:49:56.751Z,31.40
2022-08-08T15:52:25.928Z,31.50
2022-08-08T15:54:54.521Z,31.60
2022-08-08T15:57:23.551Z,31.80
2022-08-08T16:00:18.261Z,31.60
2022-08-08T16:02:50.663Z,31.50
2022-08-08T16:05:23.408Z,31.30
2022-08-08T16:07:54.261Z,31.20
2022-08-08T16:13:04.464Z,31.00
2022-08-08T16:13:29.325Z,30.90
2022-08-08T16:16:09.338Z,30.80
2022-08-08T16:18:56.166Z,30.80
2022-08-08T16:21:30.751Z,30.50
2022-08-08T16:24:02.780Z,30.50
2022-08-08T16:26:35.899Z,30.50
2022-08-08T16:29:08.042Z,30.60
2022-08-08T16:31:41.982Z,30.60
2022-08-08T16:34:15.628Z,30.40
2022-08-08T16:36:50.260Z,30.30
2022-08-08T16:40:01.039Z,30.20
2022-08-08T16:42:17.739Z,30.20
2022-08-08T16:44:54.296Z,30.30
2022-08-08T16:47:39.971Z,30.40
2022-08-08T16:50:14.816Z,30.20
2022-08-08T16:55:06.673Z,30.10
2022-08-08T16:55:53.557Z,29.90
2022-08-08T16:58:34.267Z,29.90
2022-08-08T17:01:09.160Z,29.90
2022-08-08T17:04:01.142Z,29.70
2022-08-08T17:06:36.326Z,29.80
2022-08-08T17:09:14.646Z,29.80
2022-08-08T17:11:48.818Z,29.80
2022-08-08T17:14:33.090Z,29.80
2022-08-08T17:17:04.513Z,29.90
2022-08-08T17:19:40.872Z,29.90
2022-08-08T17:22:10.299Z,29.80
2022-08-08T17:24:39.781Z,29.70
2022-08-08T17:27:08.244Z,29.80
2022-08-08T17:29:43.333Z,29.80
2022-08-08T17:32:12.166Z,29.90
2022-08-08T17:35:52.239Z,29.90
2022-08-08T17:37:28.674Z,29.70
2022-08-08T17:40:12.763Z,29.70
2022-08-08T17:42:47.233Z,29.60
2022-08-08T17:45:22.539Z,29.60
2022-08-08T17:47:54.212Z,29.50
2022-08-08T17:50:24.739Z,29.50
2022-08-08T17:52:54.065Z,29.50
2022-08-08T17:56:04.040Z,29.40
2022-08-08T17:58:15.908Z,29.20
2022-08-08T18:00:47.470Z,29.10
2022-08-08T18:03:24.544Z,29.10
2022-08-08T18:05:52.936Z,29.00
2022-08-08T18:08:37.766Z,28.80
2022-08-08T18:11:15.517Z,28.70
2022-08-08T18:13:45.761Z,28.40
2022-08-08T18:16:20.519Z,27.90
2022-08-08T18:18:56.605Z,27.60
2022-08-08T18:21:59.312Z,27.40
2022-08-08T18:24:19.417Z,27.10
2022-08-08T18:26:56.089Z,27.00
2022-08-08T18:29:33.927Z,26.90
2022-08-08T18:32:06.645Z,26.80
2022-08-08T18:34:36.519Z,26.60
2022-08-08T18:37:08.420Z,26.50
2022-08-08T18:39:41.353Z,26.40
2022-08-08T18:42:16.321Z,26.20
2022-08-08T18:44:54.992Z,26.10
2022-08-08T18:47:25.390Z,26.00
2022-08-08T18:49:58.518Z,25.80
2022-08-08T18:52:29.872Z,25.80
2022-08-08T18:55:09.813Z,25.40
2022-08-08T18:57:45.491Z,25.10
2022-08-08T19:00:20.495Z,24.80
2022-08-08T19:02:55.855Z,24.40
2022-08-08T19:05:32.005Z,24.30
2022-08-08T19:08:25.132Z,24.20
2022-08-08T19:10:58.905Z,24.10
2022-08-08T19:13:53.730Z,24.00
2022-08-08T19:16:19.223Z,24.00
2022-08-08T19:18:56.044Z,23.90
2022-08-08T19:21:32.975Z,23.80
2022-08-08T19:24:05.503Z,23.70
2022-08-08T19:26:35.381Z,23.60
2022-08-08T19:29:05.716Z,23.50
2022-08-08T19:31:35.643Z,23.30
2022-08-08T19:34:36.510Z,23.30
2022-08-08T19:36:58.626Z,23.20
2022-08-08T19:39:33.534Z,23.10
2022-08-08T19:42:04.654Z,23.00
2022-08-08T19:44:42.905Z,22.80
2022-08-08T19:47:14.886Z,22.70
2022-08-08T19:49:59.734Z,22.70
2022-08-08T19:52:34.745Z,22.70
2022-08-08T19:55:05.958Z,22.70
2022-08-08T19:57:35.636Z,22.60
2022-08-08T20:00:11.365Z,22.50
2022-08-08T20:02:57.780Z,22.50
2022-08-08T20:06:16.218Z,22.50
2022-08-08T20:08:39.310Z,22.50
2022-08-08T20:11:03.111Z,22.40
2022-08-08T20:14:12.604Z,22.40
2022-08-08T20:16:21.342Z,22.40
2022-08-08T20:18:57.596Z,22.30
2022-08-08T20:21:26.616Z,22.40
2022-08-08T20:24:00.219Z,22.50
2022-08-08T20:26:33.746Z,22.50
2022-08-08T20:29:03.949Z,22.50
2022-08-08T20:32:02.755Z,22.50
2022-08-08T20:34:31.166Z,22.40
2022-08-08T20:37:02.522Z,22.20
2022-08-08T20:39:33.762Z,22.20
2022-08-08T20:42:09.939Z,22.10
2022-08-08T20:44:38.937Z,22.20
2022-08-08T20:47:23.033Z,22.20
2022-08-08T20:49:54.322Z,22.00
2022-08-08T20:52:25.008Z,22.10
2022-08-08T20:54:53.122Z,22.00
2022-08-08T20:57:22.015Z,22.00
2022-08-08T20:59:55.836Z,22.00
2022-08-08T21:02:26.731Z,21.90
2022-08-08T21:04:57.340Z,21.80
2022-08-08T21:07:31.314Z,21.80
2022-08-08T21:10:21.022Z,21.70
2022-08-08T21:12:54.239Z,21.60
2022-08-08T21:16:05.121Z,21.50
2022-08-08T21:18:13.766Z,21.40
2022-08-08T21:20:42.775Z,21.30
2022-08-08T21:23:18.177Z,21.20
2022-08-08T21:25:48.869Z,21.20
2022-08-08T21:28:33.351Z,21.20
2022-08-08T21:31:21.698Z,21.10
2022-08-08T21:33:52.138Z,21.10
2022-08-08T21:36:28.595Z,21.00
2022-08-08T21:38:57.803Z,21.00
2022-08-08T21:41:38.020Z,20.90
2022-08-08T21:44:11.883Z,20.80
2022-08-08T21:48:04.029Z,20.70
2022-08-08T21:49:32.127Z,20.60
2022-08-08T21:54:30.753Z,20.50
2022-08-08T21:54:58.177Z,20.40
2022-08-08T21:57:41.712Z,20.30
2022-08-08T22:00:14.434Z,20.20
2022-08-08T22:02:44.188Z,20.20
2022-08-08T22:05:15.303Z,20.10
2022-08-08T22:07:48.241Z,20.10
2022-08-08T22:10:32.227Z,20.00
2022-08-08T22:13:18.623Z,20.00
2022-08-08T22:15:59.721Z,19.90
2022-08-08T22:18:31.168Z,19.80
2022-08-08T22:21:14.371Z,19.70
2022-08-08T22:23:50.415Z,19.70
2022-08-08T22:26:29.796Z,19.60
2022-08-08T22:29:13.742Z,19.60
2022-08-08T22:31:58.800Z,19.50
2022-08-08T22:34:32.658Z,19.50
2022-08-08T22:37:03.353Z,19.40
2022-08-08T22:39:46.233Z,19.30
2022-08-08T22:42:23.949Z,19.30
2022-08-08T22:44:55.527Z,19.20
2022-08-08T22:47:23.622Z,19.20
2022-08-08T22:50:02.687Z,19.10
2022-08-08T22:52:35.503Z,19.00
2022-08-08T22:55:05.968Z,19.00
2022-08-08T22:57:44.232Z,18.90
2022-08-08T23:00:19.096Z,18.80
2022-08-08T23:02:50.366Z,18.70
2022-08-08T23:05:21.253Z,18.60
2022-08-08T23:07:58.021Z,18.30
2022-08-08T23:10:27.657Z,18.30
2022-08-08T23:12:56.590Z,18.10
2022-08-08T23:16:40.755Z,18.10
2022-08-08T23:18:14.184Z,18.00
2022-08-08T23:20:44.253Z,17.90
2022-08-08T23:23:14.236Z,17.70
2022-08-08T23:25:48.798Z,17.60
2022-08-08T23:28:19.163Z,17.50
2022-08-08T23:30:48.012Z,17.50
2022-08-08T23:33:19.118Z,17.40
2022-08-08T23:36:08.363Z,17.30
2022-08-08T23:38:44.257Z,17.20
2022-08-08T23:41:23.002Z,17.10
2022-08-08T23:43:56.800Z,17.00
2022-08-08T23:49:02.528Z,17.00
2022-08-08T23:49:18.966Z,16.90
2022-08-08T23:52:04.363Z,16.80
2022-08-08T23:54:42.706Z,16.80
2022-08-08T23:57:27.598Z,16.70
